createdAt,value
2022-12-22T00:01:14.920Z,22.30
2022-12-22T00:06:35.242Z,22.27
2022-12-22T00:11:57.154Z,22.35
2022-12-22T00:17:20.712Z,22.33
2022-12-22T00:22:42.893Z,22.22
2022-12-22T00:28:04.356Z,22.28
2022-12-22T00:33:24.954Z,22.26
2022-12-22T00:38:46.887Z,22.15
2022-12-22T00:44:08.572Z,22.21
2022-12-22T00:54:49.681Z,22.25
2022-12-22T01:00:17.170Z,22.18
2022-12-22T01:05:38.227Z,22.18
2022-12-22T01:10:58.401Z,22.29
2022-12-22T01:16:20.965Z,22.23
2022-12-22T01:21:41.393Z,22.24
2022-12-22T01:27:01.459Z,22.12
2022-12-22T01:32:23.539Z,22.14
2022-12-22T01:37:44.206Z,22.25
2022-12-22T01:43:04.350Z,22.11
2022-12-22T01:48:29.333Z,22.14
2022-12-22T01:53:50.329Z,22.26
2022-12-22T01:59:14.019Z,22.25
2022-12-22T02:04:40.820Z,22.22
2022-12-22T02:10:09.908Z,22.12
2022-12-22T02:15:37.503Z,22.12
2022-12-22T02:21:05.779Z,22.08
2022-12-22T02:26:42.595Z,22.20
2022-12-22T02:32:02.956Z,22.10
2022-12-22T02:37:35.606Z,22.10
2022-12-22T02:43:06.416Z,22.06
2022-12-22T02:48:32.060Z,22.04
2022-12-22T02:53:53.362Z,22.00
2022-12-22T02:59:14.825Z,21.92
2022-12-22T03:04:34.879Z,21.76
2022-12-22T03:09:54.956Z,21.52
2022-12-22T03:15:16.505Z,21.56
2022-12-22T03:20:36.671Z,21.56
2022-12-22T03:25:54.847Z,21.35
2022-12-22T03:31:01.580Z,21.28
2022-12-22T03:36:05.111Z,21.19
2022-12-22T03:41:07.979Z,21.05
2022-12-22T03:46:32.671Z,20.92
2022-12-22T03:51:36.685Z,20.90
2022-12-22T03:56:39.851Z,20.89
2022-12-22T04:01:46.400Z,20.85
2022-12-22T04:06:49.723Z,20.76
2022-12-22T04:12:09.961Z,20.77
2022-12-22T04:17:14.058Z,20.66
2022-12-22T04:22:16.821Z,20.60
2022-12-22T04:27:19.591Z,20.58
2022-12-22T04:32:23.732Z,20.50
2022-12-22T04:37:26.459Z,20.46
2022-12-22T04:42:29.615Z,20.43
2022-12-22T04:47:33.792Z,20.42
2022-12-22T04:52:36.771Z,20.34
2022-12-22T04:57:41.006Z,20.32
2022-12-22T05:02:45.553Z,20.29
2022-12-22T05:07:48.375Z,20.26
2022-12-22T05:12:56.803Z,20.24
2022-12-22T05:18:01.829Z,20.19
2022-12-22T05:23:04.925Z,20.16
2022-12-22T05:28:07.712Z,20.16
2022-12-22T05:33:12.081Z,20.12
2022-12-22T05:38:14.858Z,20.08
2022-12-22T05:43:17.840Z,20.07
2022-12-22T05:48:27.549Z,20.02
2022-12-22T05:53:33.764Z,20.02
2022-12-22T05:58:38.826Z,19.98
2022-12-22T06:03:43.119Z,19.97
2022-12-22T06:08:46.042Z,19.94
2022-12-22T06:13:50.878Z,19.95
2022-12-22T06:18:54.953Z,19.90
2022-12-22T06:23:57.873Z,19.88
2022-12-22T06:29:00.606Z,19.88
2022-12-22T06:34:04.783Z,19.88
2022-12-22T06:39:07.788Z,19.83
2022-12-22T06:44:10.552Z,19.81
2022-12-22T06:49:14.783Z,19.80
2022-12-22T06:54:22.387Z,19.77
2022-12-22T06:59:28.843Z,19.76
2022-12-22T07:04:32.996Z,19.76
2022-12-22T07:09:35.826Z,19.74
2022-12-22T07:14:38.581Z,19.71
2022-12-22T07:19:42.720Z,19.71
2022-12-22T07:24:45.580Z,19.67
2022-12-22T07:29:48.407Z,19.64
2022-12-22T07:34:52.536Z,19.67
2022-12-22T07:39:55.288Z,19.65
2022-12-22T07:44:58.142Z,19.58
2022-12-22T07:50:19.639Z,19.59
2022-12-22T07:55:23.069Z,19.55
2022-12-22T08:00:26.104Z,19.56
2022-12-22T08:05:31.387Z,19.55
2022-12-22T08:10:34.539Z,19.43
2022-12-22T08:15:38.051Z,19.44
2022-12-22T08:20:42.258Z,19.51
2022-12-22T08:25:46.798Z,19.60
2022-12-22T08:30:49.976Z,19.60
2022-12-22T08:35:56.103Z,19.51
2022-12-22T08:40:59.675Z,19.57
2022-12-22T08:46:02.766Z,19.81
2022-12-22T08:51:07.571Z,19.92
2022-12-22T08:56:10.623Z,19.97
2022-12-22T09:01:18.245Z,20.02
2022-12-22T09:06:27.607Z,20.11
2022-12-22T09:11:31.873Z,20.19
2022-12-22T09:16:35.612Z,20.17
2022-12-22T09:21:39.851Z,20.17
2022-12-22T09:26:42.975Z,20.14
2022-12-22T09:31:46.303Z,20.14
2022-12-22T09:36:50.610Z,20.08
2022-12-22T09:41:56.406Z,20.02
2022-12-22T09:47:01.697Z,19.96
2022-12-22T09:52:06.874Z,19.94
2022-12-22T09:57:13.873Z,19.80
2022-12-22T10:02:27.007Z,19.85
2022-12-22T10:07:34.390Z,19.70
2022-12-22T10:12:37.160Z,19.68
2022-12-22T10:17:39.980Z,19.70
2022-12-22T10:22:50.826Z,19.70
2022-12-22T10:27:57.001Z,19.70
2022-12-22T10:33:08.464Z,19.62
2022-12-22T10:38:21.105Z,19.66
2022-12-22T10:43:27.626Z,19.69
2022-12-22T10:48:33.386Z,19.67
2022-12-22T10:53:45.818Z,19.65
2022-12-22T10:58:54.489Z,19.64
2022-12-22T11:03:58.024Z,19.64
2022-12-22T11:09:31.431Z,19.64
2022-12-22T11:14:33.543Z,19.67
2022-12-22T11:20:04.352Z,19.69
2022-12-22T11:25:24.258Z,19.72
2022-12-22T11:30:37.620Z,19.79
2022-12-22T11:35:52.354Z,19.82
2022-12-22T11:41:05.305Z,19.90
2022-12-22T11:46:23.188Z,19.85
2022-12-22T11:51:44.319Z,19.85
2022-12-22T11:57:00.533Z,19.79
2022-12-22T12:02:25.646Z,19.77
2022-12-22T12:07:34.204Z,19.73
2022-12-22T12:12:49.384Z,19.71
2022-12-22T12:18:20.890Z,19.72
2022-12-22T12:23:48.542Z,19.69
2022-12-22T12:29:06.415Z,19.68
2022-12-22T12:34:13.560Z,19.65
2022-12-22T12:39:21.929Z,19.65
2022-12-22T12:44:29.800Z,19.62
2022-12-22T12:49:58.554Z,19.58
2022-12-22T12:55:31.346Z,19.54
2022-12-22T13:00:53.814Z,19.56
2022-12-22T13:06:01.699Z,19.55
2022-12-22T13:12:10.665Z,19.49
2022-12-22T13:17:35.441Z,19.52
2022-12-22T13:22:38.654Z,19.52
2022-12-22T13:27:41.798Z,19.62
2022-12-22T13:32:48.987Z,19.51
2022-12-22T13:37:53.866Z,19.49
2022-12-22T13:43:01.695Z,19.49
2022-12-22T13:48:13.495Z,19.48
2022-12-22T13:53:58.146Z,19.44
2022-12-22T13:58:46.087Z,19.43
2022-12-22T14:04:02.222Z,19.43
2022-12-22T14:09:18.315Z,19.42
2022-12-22T14:14:26.021Z,19.55
2022-12-22T14:19:33.995Z,19.47
2022-12-22T14:24:44.017Z,19.42
2022-12-22T14:29:47.060Z,19.37
2022-12-22T14:34:55.401Z,19.40
2022-12-22T14:39:58.468Z,19.38
2022-12-22T14:45:01.333Z,19.39
2022-12-22T14:50:17.744Z,19.32
2022-12-22T14:55:29.321Z,19.27
2022-12-22T15:00:35.855Z,19.30
2022-12-22T15:05:42.087Z,19.32
2022-12-22T15:10:45.830Z,19.33
2022-12-22T15:15:50.401Z,19.35
2022-12-22T15:20:55.013Z,19.36
2022-12-22T15:25:57.819Z,19.38
2022-12-22T15:31:01.827Z,19.39
2022-12-22T15:36:07.324Z,19.35
2022-12-22T15:41:10.331Z,19.55
2022-12-22T15:46:18.903Z,19.67
2022-12-22T15:51:25.912Z,19.80
2022-12-22T15:56:33.574Z,20.03
2022-12-22T16:01:36.836Z,20.21
2022-12-22T16:06:41.208Z,20.30
2022-12-22T16:11:44.018Z,20.40
2022-12-22T16:16:47.125Z,20.49
2022-12-22T16:21:54.014Z,20.57
2022-12-22T16:26:58.172Z,20.66
2022-12-22T16:32:17.946Z,20.73
2022-12-22T16:37:22.383Z,20.75
2022-12-22T16:47:45.871Z,20.88
2022-12-22T16:52:51.918Z,20.92
2022-12-22T16:57:54.900Z,20.97
2022-12-22T17:03:02.426Z,21.04
2022-12-22T17:08:09.478Z,21.23
2022-12-22T17:13:12.916Z,21.42
2022-12-22T17:18:17.738Z,21.58
2022-12-22T17:23:31.471Z,21.67
2022-12-22T17:28:34.784Z,21.77
2022-12-22T17:33:37.565Z,21.91
2022-12-22T17:38:41.762Z,21.97
2022-12-22T17:43:45.229Z,22.12
2022-12-22T17:48:49.019Z,22.21
2022-12-22T17:53:54.823Z,22.13
2022-12-22T17:58:57.794Z,22.18
2022-12-22T18:04:00.871Z,22.28
2022-12-22T18:09:07.224Z,22.38
2022-12-22T18:14:12.995Z,22.36
2022-12-22T18:19:15.847Z,22.32
2022-12-22T18:24:20.764Z,22.26
2022-12-22T18:29:23.538Z,22.27
2022-12-22T18:34:26.521Z,22.27
2022-12-22T18:39:31.632Z,22.37
2022-12-22T18:44:34.656Z,22.32
2022-12-22T18:49:37.559Z,22.35
2022-12-22T18:54:41.836Z,22.31
2022-12-22T18:59:45.795Z,22.37
2022-12-22T19:04:49.010Z,22.34
2022-12-22T19:09:53.267Z,22.26
2022-12-22T19:15:03.558Z,22.23
2022-12-22T19:20:11.595Z,22.31
2022-12-22T19:25:17.406Z,22.28
2022-12-22T19:30:23.148Z,22.31
2022-12-22T19:35:25.989Z,22.27
2022-12-22T19:40:33.389Z,22.34
2022-12-22T19:45:36.771Z,22.28
2022-12-22T19:50:39.935Z,22.31
2022-12-22T19:55:47.146Z,22.38
2022-12-22T20:00:50.465Z,22.33
2022-12-22T20:05:54.711Z,22.31
2022-12-22T20:11:00.325Z,22.31
2022-12-22T20:16:03.352Z,22.34
2022-12-22T20:21:08.400Z,22.33
2022-12-22T20:26:17.327Z,22.22
2022-12-22T20:31:22.406Z,22.30
2022-12-22T20:36:29.993Z,22.28
2022-12-22T20:41:34.255Z,22.28
2022-12-22T20:46:37.317Z,22.30
2022-12-22T20:51:40.290Z,22.33
2022-12-22T20:56:46.144Z,22.22
2022-12-22T21:01:50.268Z,22.33
2022-12-22T21:06:55.126Z,22.41
2022-12-22T21:11:59.271Z,22.41
2022-12-22T21:17:02.251Z,22.34
2022-12-22T21:22:05.728Z,22.29
2022-12-22T21:27:18.188Z,22.29
2022-12-22T21:32:21.367Z,22.27
2022-12-22T21:37:24.193Z,22.27
2022-12-22T21:42:28.378Z,22.17
2022-12-22T21:47:31.264Z,22.23
2022-12-22T21:52:34.730Z,22.22
2022-12-22T21:57:38.893Z,22.13
2022-12-22T22:02:42.097Z,22.21
2022-12-22T22:07:45.264Z,22.22
2022-12-22T22:12:49.357Z,22.26
2022-12-22T22:17:52.161Z,22.25
2022-12-22T22:22:57.004Z,22.25
2022-12-22T22:28:01.184Z,22.28
2022-12-22T22:33:04.431Z,22.24
2022-12-22T22:38:07.235Z,22.20
2022-12-22T22:43:12.114Z,22.24
2022-12-22T22:48:21.109Z,22.29
2022-12-22T22:53:24.067Z,22.24
2022-12-22T22:58:29.541Z,22.23
2022-12-22T23:03:33.040Z,22.32
2022-12-22T23:08:36.556Z,22.22
2022-12-22T23:13:40.664Z,22.29
2022-12-22T23:18:43.457Z,22.24
2022-12-22T23:23:46.318Z,22.22
2022-12-22T23:28:50.405Z,22.28
2022-12-22T23:33:53.499Z,22.32
2022-12-22T23:38:56.310Z,22.25
2022-12-22T23:44:00.393Z,22.20
2022-12-22T23:49:03.239Z,22.28
2022-12-22T23:54:06.350Z,22.36
2022-12-22T23:59:10.476Z,22.24
